Capitol Logistics 449


KSMF
Sacramento International Airport
Sacramento, California, US
KELP
El Paso International Airport
El Paso, Texas, US

Route Details

Aircraft Information
Primary: Boeing 757-200SF
Backup: Boeing 737-800BCF
Route Data
Distance: 852nm
Sched. Duration: 2h 10m
Avg. Duration: 2h 30m (+20m)
Times Flown: 3
Recm'd Route: RVRCT2 RALEY JSICA Q130 ROCCY KD36Q CABNO SLNNK WAZKO1
Planned Altitude: 35,000ft
Origin Wx: KSMF 070253Z 25004KT 10SM SCT060 BKN250 08/07 A2996 RMK AO2 SLP143 60000 T00830072 51016
Dest. Wx: KELP 070251Z 19008KT 10SM FEW210 OVC250 21/M03 A3004 RMK AO2 SLP113 T02061033 53018
Notes:

Financial History
Total Freight: 105,808lbs
Average Load: 35,269lbs/flt
Fuel Used: 47,426lbs
Avg. Fuel Used: 15,809lbs/flt
Fuel Expense: $51,694
Avg. Fuel Expense: $17,231
Avg. Fuel Cost: $1.09/lbs
Total Gross Income: $136,984
Pilot Pay: $537
Total Expenses: $14,950
Total Revenue: $68,535
Average Revenue: $45,661.49